Time;durP1;ratioP1;P1;durP2;ratioP2;P2;SDS_P1;SDS_P2;PMS_P1;PMS_P2;Temp;Humidity;BMP_temperature;BMP_pressure;BME280_temperature;BME280_humidity;BME280_pressure;Samples;Min_cycle;Max_cycle;Signal;HPM_P1;HPM_P2
2023/09/03 00:01:35;;;;;;;5.33;4.80;;;;;;;19.21;81.45;98578.66;5008508;28;20493;-74
2023/09/03 00:04:01;;;;;;;6.30;5.80;;;;;;;19.32;80.96;98564.91;5009401;28;20504;-76
2023/09/03 00:06:28;;;;;;;6.27;5.67;;;;;;;19.23;81.31;98571.00;5008364;28;20464;-74
2023/09/03 00:08:55;;;;;;;7.03;6.40;;;;;;;19.06;81.91;98566.31;5010123;28;20929;-75
2023/09/03 00:11:23;;;;;;;6.60;6.00;;;;;;;19.09;81.88;98565.00;5008243;28;20468;-75
2023/09/03 00:13:50;;;;;;;5.60;5.20;;;;;;;19.01;82.30;98565.38;5008570;28;20487;-75
2023/09/03 00:16:17;;;;;;;5.87;5.37;;;;;;;19.06;82.32;98566.31;5007098;28;20880;-74
2023/09/03 00:18:43;;;;;;;6.23;5.43;;;;;;;19.11;81.97;98574.66;5009175;28;20493;-74
2023/09/03 00:21:10;;;;;;;6.87;6.30;;;;;;;19.14;81.53;98576.09;5007926;28;20488;-75
2023/09/03 00:23:37;;;;;;;8.60;6.67;;;;;;;19.06;81.74;98573.72;5007380;28;20480;-75
2023/09/03 00:26:04;;;;;;;7.10;6.50;;;;;;;18.99;82.10;98573.84;5008004;28;20511;-74
2023/09/03 00:28:33;;;;;;;6.30;5.80;;;;;;;18.97;82.14;98572.41;5009606;28;20546;-75
2023/09/03 00:31:00;;;;;;;7.23;6.50;;;;;;;18.93;82.72;98576.72;5008225;28;20480;-74
2023/09/03 00:33:27;;;;;;;6.40;5.90;;;;;;;18.78;83.50;98574.50;5006859;28;20448;-75
2023/09/03 00:35:54;;;;;;;7.50;6.77;;;;;;;18.73;83.12;98580.72;5008855;28;20463;-75
2023/09/03 00:38:21;;;;;;;8.20;7.10;;;;;;;18.57;84.48;98581.41;5008495;28;20688;-74
2023/09/03 00:40:48;;;;;;;7.67;6.97;;;;;;;18.70;84.12;98583.94;5004930;28;20565;-75
2023/09/03 00:43:15;;;;;;;7.97;7.13;;;;;;;18.71;83.99;98593.84;5007985;28;20468;-74
2023/09/03 00:45:43;;;;;;;6.97;6.37;;;;;;;18.52;84.95;98584.03;5007996;28;20540;-75
2023/09/03 00:48:10;;;;;;;6.20;5.70;;;;;;;18.58;84.62;98590.47;5008677;28;20967;-74
2023/09/03 00:50:38;;;;;;;8.27;6.37;;;;;;;18.48;85.10;98582.03;5007905;28;20975;-74
2023/09/03 00:53:05;;;;;;;6.93;6.30;;;;;;;18.65;84.32;98589.31;5005204;28;20453;-75
2023/09/03 00:55:33;;;;;;;7.73;7.03;;;;;;;18.56;84.77;98585.22;5006835;28;20874;-74
2023/09/03 00:58:00;;;;;;;7.33;6.83;;;;;;;18.46;85.13;98591.34;5007188;28;20841;-74
2023/09/03 01:00:26;;;;;;;7.50;6.90;;;;;;;18.58;84.45;98583.06;5008680;28;20546;-75
2023/09/03 01:02:55;;;;;;;8.00;7.20;;;;;;;18.56;84.77;98585.22;5006972;28;20532;-74
2023/09/03 01:05:22;;;;;;;7.53;6.93;;;;;;;18.54;84.77;98584.63;5006727;28;20610;-75
2023/09/03 01:07:49;;;;;;;7.80;7.20;;;;;;;18.42;85.58;98590.13;5007388;28;20457;-75
2023/09/03 01:10:16;;;;;;;7.13;6.43;;;;;;;18.49;85.00;98590.03;5008416;28;20476;-74
2023/09/03 01:12:47;;;;;;;7.37;6.77;;;;;;;18.49;85.29;98592.75;5007185;28;20495;-75
2023/09/03 01:15:18;;;;;;;6.90;6.30;;;;;;;18.43;85.01;98602.78;5004059;28;20509;-75
2023/09/03 01:17:48;;;;;;;6.97;6.47;;;;;;;18.17;86.35;98597.78;5009635;28;20520;-74
2023/09/03 01:20:18;;;;;;;6.77;6.20;;;;;;;17.99;87.28;98604.16;5007409;28;20453;-74
2023/09/03 01:23:19;;;;;;;6.73;6.13;;;;;;;18.09;86.64;98607.16;5005664;28;20488;-74
2023/09/03 01:26:04;;;;;;;6.50;5.90;;;;;;;18.09;86.85;98618.13;4926047;29;20530;-74
2023/09/03 01:28:34;;;;;;;7.17;6.67;;;;;;;18.08;86.73;98615.63;5002095;28;20532;-74
2023/09/03 01:31:03;;;;;;;6.63;6.03;;;;;;;18.03;86.67;98602.63;5007901;28;20545;-74
2023/09/03 01:33:32;;;;;;;7.07;6.50;;;;;;;18.03;87.05;98618.22;5005588;28;20481;-75
2023/09/03 01:35:59;;;;;;;7.20;6.60;;;;;;;18.06;87.16;98624.06;5008083;28;20496;-74
2023/09/03 01:38:26;;;;;;;7.40;5.60;;;;;;;17.95;87.57;98618.56;5006471;28;20492;-74
2023/09/03 01:40:55;;;;;;;6.60;6.00;;;;;;;17.94;87.94;98625.94;5007587;28;20457;-74
2023/09/03 01:43:22;;;;;;;6.60;6.00;;;;;;;18.01;87.38;98629.41;5008156;28;20587;-75
2023/09/03 01:45:59;;;;;;;6.00;5.60;;;;;;;18.19;86.61;98627.69;5011498;28;20519;-74
2023/09/03 01:48:32;;;;;;;6.93;6.33;;;;;;;18.07;87.20;98623.00;5009666;28;20988;-74
2023/09/03 01:51:05;;;;;;;6.30;5.80;;;;;;;18.08;87.03;98627.41;5010960;28;20460;-74
2023/09/03 01:53:36;;;;;;;6.83;6.23;;;;;;;18.11;87.24;98624.19;5008352;28;20514;-75
2023/09/03 01:56:03;;;;;;;6.60;6.10;;;;;;;18.11;87.27;98621.47;5010064;28;20461;-74
2023/09/03 01:58:32;;;;;;;7.23;6.53;;;;;;;18.00;88.04;98635.13;5008314;28;20988;-75
2023/09/03 02:01:00;;;;;;;6.63;6.13;;;;;;;17.95;88.13;98638.56;5008945;28;20465;-75
2023/09/03 02:03:28;;;;;;;7.00;6.33;;;;;;;18.06;87.41;98635.03;5010566;28;20582;-74
2023/09/03 02:05:54;;;;;;;7.00;6.50;;;;;;;18.20;86.49;98635.63;5011718;28;20540;-75
2023/09/03 02:08:21;;;;;;;6.60;6.00;;;;;;;18.15;86.28;98638.28;5010304;28;20444;-74
2023/09/03 02:10:48;;;;;;;6.77;6.20;;;;;;;18.15;86.58;98645.66;5010645;28;20846;-74
2023/09/03 02:13:14;;;;;;;6.23;5.63;;;;;;;18.04;87.01;98648.13;5010352;28;20507;-75
2023/09/03 02:15:42;;;;;;;7.50;6.80;;;;;;;17.95;87.33;98637.72;5010192;28;20992;-74
2023/09/03 02:18:10;;;;;;;6.83;6.23;;;;;;;17.94;87.16;98634.16;5010922;28;20485;-74
2023/09/03 02:20:36;;;;;;;7.50;6.70;;;;;;;17.96;87.32;98639.41;5010416;28;20528;-74
2023/09/03 02:23:04;;;;;;;7.27;6.57;;;;;;;17.87;87.81;98641.63;5007657;28;20564;-74
2023/09/03 02:25:30;;;;;;;6.80;6.30;;;;;;;17.93;87.51;98635.22;5010623;28;20527;-74
2023/09/03 02:27:57;;;;;;;7.10;6.50;;;;;;;17.88;87.31;98648.78;5011780;28;20508;-74
2023/09/03 02:30:24;;;;;;;8.33;7.63;;;;;;;17.88;86.73;98643.31;5009891;28;20463;-74
2023/09/03 02:32:51;;;;;;;8.80;7.90;;;;;;;17.71;87.42;98645.06;5009094;28;20449;-75
2023/09/03 02:35:19;;;;;;;8.37;7.67;;;;;;;17.53;88.62;98645.09;5007268;28;20523;-74
2023/09/03 02:37:46;;;;;;;8.57;7.77;;;;;;;17.46;88.97;98646.00;5010199;28;20487;-75
2023/09/03 02:40:12;;;;;;;10.07;9.27;;;;;;;17.30;89.22;98643.91;5010165;28;20544;-74
2023/09/03 02:42:39;;;;;;;10.13;9.23;;;;;;;17.22;89.18;98643.41;5009966;28;20461;-74
2023/09/03 02:45:07;;;;;;;10.10;9.20;;;;;;;17.16;89.53;98645.16;5010610;28;21574;-75
2023/09/03 02:47:33;;;;;;;9.70;8.97;;;;;;;17.06;90.04;98650.31;5009980;28;20464;-75
2023/09/03 02:50:00;;;;;;;8.63;8.03;;;;;;;17.04;90.65;98656.00;5009771;28;20481;-74
2023/09/03 02:52:28;;;;;;;8.27;7.67;;;;;;;17.05;91.09;98648.66;5010385;28;21028;-74
2023/09/03 02:54:55;;;;;;;10.23;9.23;;;;;;;17.07;90.45;98657.47;5006902;28;20580;-74
2023/09/03 02:57:22;;;;;;;10.83;9.80;;;;;;;17.01;90.36;98656.47;5010004;28;20532;-74
2023/09/03 02:59:49;;;;;;;9.13;8.43;;;;;;;16.85;91.11;98662.56;5009219;28;20559;-75
2023/09/03 03:02:16;;;;;;;9.53;8.83;;;;;;;16.85;91.09;98664.47;5007738;28;20523;-75
2023/09/03 03:04:42;;;;;;;10.13;9.27;;;;;;;16.71;91.56;98658.28;5008325;28;20469;-74
2023/09/03 03:07:09;;;;;;;10.93;9.90;;;;;;;16.62;92.06;98671.38;5009333;28;20532;-74
2023/09/03 03:09:37;;;;;;;8.97;8.17;;;;;;;16.59;92.25;98660.88;5010200;28;20473;-74
2023/09/03 03:12:04;;;;;;;8.93;8.30;;;;;;;16.61;92.00;98656.03;5007168;28;20457;-74
2023/09/03 03:14:31;;;;;;;10.17;9.17;;;;;;;16.62;92.10;98662.34;5009925;28;20518;-74
2023/09/03 03:16:58;;;;;;;9.73;8.97;;;;;;;16.68;91.98;98659.56;5008870;28;20559;-74
2023/09/03 03:19:25;;;;;;;7.90;7.30;;;;;;;16.66;91.77;98661.69;5008748;28;20848;-74
2023/09/03 03:21:52;;;;;;;7.90;7.20;;;;;;;16.69;91.71;98666.72;5007174;28;20453;-74
2023/09/03 03:24:19;;;;;;;7.40;6.80;;;;;;;16.71;91.89;98664.59;5009837;28;20492;-74
2023/09/03 03:26:47;;;;;;;7.80;7.00;;;;;;;16.65;91.97;98660.00;5009962;28;20457;-74
2023/09/03 03:29:14;;;;;;;8.10;7.20;;;;;;;16.71;92.05;98664.59;5006815;28;20543;-75
2023/09/03 03:31:42;;;;;;;8.10;7.50;;;;;;;16.83;91.51;98667.41;5009363;28;20913;-74
2023/09/03 03:34:09;;;;;;;8.63;7.93;;;;;;;16.88;91.36;98670.31;5010494;28;20469;-74
2023/09/03 03:36:36;;;;;;;11.00;8.83;;;;;;;16.97;90.70;98679.03;5009402;28;21023;-75
2023/09/03 03:39:03;;;;;;;8.17;7.37;;;;;;;16.81;91.38;98680.47;5009055;28;20904;-74
2023/09/03 03:41:31;;;;;;;9.60;8.70;;;;;;;16.78;91.68;98681.75;5007333;28;20493;-75
2023/09/03 03:43:59;;;;;;;7.40;6.70;;;;;;;16.65;91.98;98683.78;5006205;28;21022;-75
2023/09/03 03:46:26;;;;;;;7.63;6.93;;;;;;;16.55;92.71;98678.81;5007768;28;20460;-74
2023/09/03 03:48:52;;;;;;;7.20;6.70;;;;;;;16.71;91.80;98681.00;5010808;28;20532;-74
2023/09/03 03:51:19;;;;;;;8.67;7.97;;;;;;;16.69;91.66;98685.84;5008038;28;20536;-74
2023/09/03 03:53:46;;;;;;;7.60;6.80;;;;;;;16.70;91.44;98692.16;5009020;28;20992;-74
2023/09/03 03:56:13;;;;;;;6.67;6.07;;;;;;;16.73;90.90;98695.28;5008660;28;20464;-75
2023/09/03 03:58:42;;;;;;;7.47;6.87;;;;;;;16.71;91.26;98694.66;5008001;28;20489;-74
2023/09/03 04:01:15;;;;;;;7.17;6.57;;;;;;;16.73;91.56;98700.72;5006561;28;20531;-75
2023/09/03 04:03:42;;;;;;;6.90;6.40;;;;;;;16.75;91.44;98697.78;5010034;28;20837;-74
2023/09/03 04:06:09;;;;;;;8.67;7.97;;;;;;;16.83;91.51;98702.97;5008146;28;20823;-74
2023/09/03 04:08:38;;;;;;;7.50;6.77;;;;;;;16.88;90.82;98703.13;5009005;28;20610;-75
2023/09/03 04:11:06;;;;;;;7.87;7.27;;;;;;;16.78;91.23;98711.84;5008025;28;20461;-74
2023/09/03 04:13:33;;;;;;;7.77;7.20;;;;;;;16.79;91.31;98709.94;5008189;28;20483;-74
2023/09/03 04:16:00;;;;;;;8.87;8.10;;;;;;;16.85;91.36;98713.66;5008841;28;20445;-75
2023/09/03 04:18:29;;;;;;;8.37;7.53;;;;;;;16.63;92.12;98714.03;5007482;28;20481;-75
2023/09/03 04:20:57;;;;;;;8.67;7.87;;;;;;;16.48;93.63;98713.56;5007455;28;20465;-74
2023/09/03 04:23:25;;;;;;;8.93;8.13;;;;;;;16.55;93.45;98714.34;5009269;28;20481;-74
2023/09/03 04:25:52;;;;;;;8.30;7.60;;;;;;;16.61;92.88;98713.41;5008632;28;20535;-75
2023/09/03 04:28:19;;;;;;;7.03;6.50;;;;;;;16.65;92.49;98711.94;5007353;28;20461;-75
2023/09/03 04:30:46;;;;;;;9.70;8.90;;;;;;;16.76;91.98;98711.22;5006447;28;20539;-75
2023/09/03 04:33:13;;;;;;;8.17;7.47;;;;;;;16.73;91.79;98711.66;5005447;28;20557;-75
2023/09/03 04:35:41;;;;;;;9.33;8.40;;;;;;;16.71;91.45;98719.25;5006890;28;20461;-76
2023/09/03 04:38:09;;;;;;;8.37;7.77;;;;;;;16.66;91.70;98724.56;5002021;28;20540;-72
2023/09/03 04:40:37;;;;;;;8.43;7.57;;;;;;;16.62;92.28;98719.72;5007384;28;20485;-73
2023/09/03 04:43:04;;;;;;;8.20;7.50;;;;;;;16.56;92.43;98726.94;5003943;28;20472;-73
2023/09/03 04:45:32;;;;;;;8.90;8.10;;;;;;;16.54;92.56;98728.22;5008283;28;20481;-78
2023/09/03 04:47:59;;;;;;;8.17;7.47;;;;;;;16.43;92.76;98729.78;5003879;28;21271;-78
2023/09/03 04:50:26;;;;;;;9.10;8.40;;;;;;;16.52;92.58;98730.34;5005846;28;21486;-78
2023/09/03 04:52:56;;;;;;;7.70;7.10;;;;;;;16.48;92.46;98738.16;5007914;28;20798;-78
2023/09/03 04:55:23;;;;;;;7.93;7.33;;;;;;;16.35;92.90;98736.34;5008766;28;20865;-78
2023/09/03 04:57:50;;;;;;;8.07;7.37;;;;;;;16.32;93.05;98730.50;5009576;28;20496;-78
2023/09/03 05:00:17;;;;;;;8.50;7.70;;;;;;;16.44;92.90;98751.41;5006925;28;20485;-77
2023/09/03 05:02:44;;;;;;;7.77;7.17;;;;;;;16.56;92.35;98751.56;5006982;28;20458;-77
2023/09/03 05:05:11;;;;;;;7.40;6.83;;;;;;;16.72;91.85;98748.28;5003621;28;20475;-78
2023/09/03 05:07:37;;;;;;;7.60;7.00;;;;;;;16.61;92.09;98757.16;5006172;28;20467;-80
2023/09/03 05:10:07;;;;;;;7.80;7.10;;;;;;;16.64;92.51;98761.38;5007413;28;20810;-80
2023/09/03 05:12:34;;;;;;;7.47;6.90;;;;;;;16.75;92.24;98769.69;5007956;28;20453;-81
2023/09/03 05:15:01;;;;;;;7.30;6.60;;;;;;;16.86;91.49;98764.56;5009415;28;20445;-80
2023/09/03 05:17:28;;;;;;;6.83;6.30;;;;;;;17.22;89.98;98769.25;5006872;28;21028;-81
2023/09/03 05:19:55;;;;;;;6.23;5.73;;;;;;;17.28;89.37;98782.00;5008453;28;20515;-81
2023/09/03 05:22:21;;;;;;;6.70;6.10;;;;;;;17.12;89.83;98787.00;5009495;28;21119;-76
2023/09/03 05:24:48;;;;;;;6.30;5.70;;;;;;;17.26;89.37;98793.16;5009990;28;20564;-77
2023/09/03 05:27:16;;;;;;;6.70;6.10;;;;;;;17.38;88.32;98785.91;5010690;28;20459;-77
2023/09/03 05:29:43;;;;;;;6.70;6.20;;;;;;;17.43;88.50;98794.25;5010541;28;20547;-77
2023/09/03 05:32:09;;;;;;;5.90;5.40;;;;;;;17.49;87.75;98792.53;5011180;28;20457;-77
2023/09/03 05:34:36;;;;;;;6.33;5.83;;;;;;;17.52;87.45;98778.38;5009880;28;20495;-77
2023/09/03 05:37:03;;;;;;;5.60;5.10;;;;;;;17.36;88.54;98776.22;5008667;28;20461;-77
2023/09/03 05:39:31;;;;;;;5.90;5.40;;;;;;;17.48;87.91;98773.59;5009798;28;21149;-77
2023/09/03 05:41:58;;;;;;;6.20;5.70;;;;;;;17.63;87.51;98774.03;5010000;28;20503;-77
2023/09/03 05:44:26;;;;;;;5.93;5.40;;;;;;;17.56;87.34;98781.47;5011140;28;20571;-78
2023/09/03 05:46:53;;;;;;;5.93;5.43;;;;;;;17.53;87.58;98771.00;5011913;28;20536;-76
2023/09/03 05:49:20;;;;;;;5.70;5.27;;;;;;;17.42;88.37;98759.75;5011193;28;20468;-77
2023/09/03 05:51:46;;;;;;;8.43;6.00;;;;;;;17.63;87.72;98763.91;5010781;28;20956;-77
2023/09/03 05:54:13;;;;;;;6.17;5.67;;;;;;;17.58;87.71;98762.91;5008837;28;20476;-77
2023/09/03 05:56:39;;;;;;;6.20;5.70;;;;;;;17.72;87.28;98764.47;5006421;28;20532;-76
2023/09/03 05:59:08;;;;;;;8.63;8.03;;;;;;;17.39;88.24;98764.84;5011919;28;20490;-77
2023/09/03 06:01:37;;;;;;;9.77;8.27;;;;;;;17.16;89.58;98768.25;5011053;28;20457;-77
2023/09/03 06:04:06;;;;;;;7.37;6.67;;;;;;;17.10;90.40;98775.47;5008036;28;21012;-77
2023/09/03 06:06:36;;;;;;;8.27;7.57;;;;;;;17.33;89.76;98777.53;5008539;28;20452;-77
2023/09/03 06:09:03;;;;;;;8.00;7.30;;;;;;;17.38;88.96;98791.38;5006656;28;20526;-78
2023/09/03 06:11:30;;;;;;;7.67;7.00;;;;;;;17.60;88.59;98782.69;5009242;28;20511;-78
2023/09/03 06:13:57;;;;;;;6.93;6.43;;;;;;;17.70;87.79;98794.81;5009327;28;20481;-78
2023/09/03 06:16:24;;;;;;;7.23;6.60;;;;;;;17.75;87.70;98796.88;5010260;28;20461;-74
2023/09/03 06:18:52;;;;;;;6.90;6.30;;;;;;;17.89;86.85;98803.00;5008834;28;21183;-78
2023/09/03 06:21:19;;;;;;;6.97;6.33;;;;;;;18.29;85.95;98803.28;5006911;28;20917;-78
2023/09/03 06:23:46;;;;;;;6.23;5.57;;;;;;;18.59;83.87;98793.13;5009487;28;20481;-78
2023/09/03 06:26:13;;;;;;;6.50;6.00;;;;;;;18.59;82.92;98795.88;5010280;28;20475;-78
2023/09/03 06:28:40;;;;;;;6.40;5.80;;;;;;;18.35;83.65;98803.22;5007720;28;20457;-78
2023/09/03 06:31:07;;;;;;;6.60;6.00;;;;;;;18.60;82.68;98808.53;5006600;28;20460;-78
2023/09/03 06:33:34;;;;;;;6.40;5.90;;;;;;;18.65;82.19;98814.16;5009436;28;21095;-78
2023/09/03 06:36:02;;;;;;;6.57;6.00;;;;;;;18.86;81.83;98815.50;5008555;28;20539;-77
2023/09/03 06:38:29;;;;;;;7.00;6.40;;;;;;;18.82;82.04;98816.25;5005351;28;20463;-78
2023/09/03 06:40:55;;;;;;;6.60;6.03;;;;;;;19.06;80.64;98815.19;5005816;28;20869;-78
2023/09/03 06:43:22;;;;;;;6.70;6.10;;;;;;;19.23;80.31;98821.63;5008535;28;20567;-78
2023/09/03 06:45:49;;;;;;;6.60;6.00;;;;;;;19.17;80.59;98825.31;5007319;28;20489;-78
2023/09/03 06:48:16;;;;;;;6.60;5.97;;;;;;;19.16;80.74;98829.16;5007393;28;20457;-74
2023/09/03 06:50:43;;;;;;;7.10;6.40;;;;;;;19.03;81.22;98832.13;5006714;28;20469;-77
2023/09/03 06:53:11;;;;;;;6.57;5.97;;;;;;;19.15;81.05;98841.22;5008604;28;20504;-77
2023/09/03 06:55:38;;;;;;;7.00;6.40;;;;;;;19.23;80.96;98837.25;5000015;28;20522;-78
2023/09/03 06:58:05;;;;;;;6.17;5.67;;;;;;;19.40;80.04;98855.53;5003832;28;20486;-78
2023/09/03 07:00:35;;;;;;;7.13;5.40;;;;;;;19.36;80.53;98857.06;5002962;28;20494;-79
2023/09/03 07:03:02;;;;;;;6.83;5.70;;;;;;;19.37;80.22;98861.50;5004070;28;20476;-79
2023/09/03 07:05:29;;;;;;;6.43;5.93;;;;;;;19.38;80.44;98856.84;5011077;28;20567;-80
2023/09/03 07:07:55;;;;;;;5.77;5.17;;;;;;;19.61;79.32;98861.50;5009946;28;20453;-81
2023/09/03 07:10:24;;;;;;;7.67;7.03;;;;;;;19.79;78.89;98853.13;5008336;28;20545;-81
2023/09/03 07:12:50;;;;;;;6.20;5.80;;;;;;;19.75;79.19;98857.44;5008786;28;20483;-79
2023/09/03 07:15:17;;;;;;;7.30;6.60;;;;;;;19.40;80.72;98858.28;5002215;28;20897;-78
2023/09/03 07:17:44;;;;;;;7.03;6.43;;;;;;;19.40;81.13;98861.03;4997899;28;20460;-80
2023/09/03 07:20:12;;;;;;;7.17;6.60;;;;;;;19.42;80.62;98858.03;4999621;28;20961;-81
2023/09/03 07:22:40;;;;;;;6.50;6.00;;;;;;;19.57;80.03;98876.78;5004341;28;21793;-80
2023/09/03 07:25:08;;;;;;;6.10;5.53;;;;;;;19.88;79.34;98879.16;5009144;28;20457;-80
2023/09/03 07:27:38;;;;;;;7.10;6.40;;;;;;;20.12;77.73;98883.53;5008183;28;20475;-77
2023/09/03 07:30:07;;;;;;;6.80;6.20;;;;;;;20.23;77.16;98881.81;5008557;28;20458;-80
2023/09/03 07:32:36;;;;;;;7.43;6.83;;;;;;;20.50;75.28;98881.25;5007188;28;20492;-80
2023/09/03 07:35:04;;;;;;;6.47;5.97;;;;;;;20.50;76.04;98904.09;5009522;28;20449;-81
2023/09/03 07:37:30;;;;;;;6.70;6.10;;;;;;;20.89;73.80;98899.63;5006177;28;20475;-80
2023/09/03 07:39:57;;;;;;;6.60;6.00;;;;;;;21.11;73.17;98897.00;4998267;28;20555;-80
2023/09/03 07:42:24;;;;;;;6.57;5.97;;;;;;;21.09;73.46;98890.91;5000196;28;21437;-80
2023/09/03 07:44:52;;;;;;;6.20;5.70;;;;;;;21.57;71.53;98892.25;5008031;28;20457;-80
2023/09/03 07:47:19;;;;;;;6.07;5.57;;;;;;;21.84;70.85;98890.44;4997127;28;20469;-80
2023/09/03 07:49:46;;;;;;;5.40;4.90;;;;;;;22.21;69.10;98885.19;5003534;28;20543;-80
2023/09/03 07:52:12;;;;;;;6.00;5.50;;;;;;;22.72;67.05;98883.84;5007256;28;20845;-80
2023/09/03 07:54:39;;;;;;;6.20;5.60;;;;;;;23.46;64.17;98899.72;5005335;28;20457;-80
2023/09/03 07:57:06;;;;;;;5.17;4.77;;;;;;;23.75;62.34;98903.00;5004374;28;20461;-81
2023/09/03 07:59:34;;;;;;;6.00;5.50;;;;;;;24.35;60.76;98908.09;5009335;28;20477;-81
2023/09/03 08:02:04;;;;;;;4.37;4.07;;;;;;;25.13;57.95;98891.41;5008187;28;20991;-81
2023/09/03 08:04:31;;;;;;;4.83;4.40;;;;;;;26.07;54.56;98899.09;5005292;28;21014;-81
2023/09/03 08:06:58;;;;;;;5.37;4.87;;;;;;;26.36;53.66;98896.50;5002932;28;20457;-80
2023/09/03 08:09:25;;;;;;;5.27;4.73;;;;;;;26.67;52.63;98894.41;5008490;28;20479;-81
2023/09/03 08:11:52;;;;;;;6.43;5.50;;;;;;;26.52;52.51;98904.78;5004469;28;21042;-81
2023/09/03 08:14:18;;;;;;;5.30;4.90;;;;;;;26.41;53.16;98902.06;5007997;28;20476;-80
2023/09/03 08:16:45;;;;;;;4.13;3.83;;;;;;;26.15;54.18;98907.97;5004762;28;20461;-80
2023/09/03 08:19:13;;;;;;;5.80;5.30;;;;;;;26.60;53.31;98913.38;5008380;28;20469;-80
2023/09/03 08:21:41;;;;;;;5.90;5.40;;;;;;;26.19;54.09;98918.22;5006998;28;20453;-81
2023/09/03 08:24:09;;;;;;;5.80;5.30;;;;;;;25.60;56.42;98918.03;5002710;28;20650;-81
2023/09/03 08:26:36;;;;;;;5.77;5.27;;;;;;;25.86;56.11;98911.34;5004957;28;20467;-82
2023/09/03 08:29:03;;;;;;;5.30;4.80;;;;;;;25.85;55.55;98909.69;5003530;28;20461;-80
2023/09/03 08:31:29;;;;;;;6.43;5.10;;;;;;;26.34;54.37;98907.06;5005510;28;20496;-81
2023/09/03 08:33:56;;;;;;;4.93;4.60;;;;;;;26.92;52.84;98906.53;5004453;28;20485;-80
2023/09/03 08:36:24;;;;;;;5.03;4.73;;;;;;;27.15;51.36;98905.00;5006310;28;20515;-80
2023/09/03 08:38:53;;;;;;;5.53;5.10;;;;;;;27.07;51.73;98909.22;5005208;28;20465;-81
2023/09/03 08:41:21;;;;;;;6.27;5.87;;;;;;;27.46;50.37;98908.38;5006637;28;20591;-76
2023/09/03 08:43:49;;;;;;;5.00;4.60;;;;;;;27.82;49.42;98904.19;5003132;28;20477;-80
2023/09/03 08:46:17;;;;;;;5.37;4.87;;;;;;;27.27;50.63;98917.44;5006644;28;20679;-79
2023/09/03 08:48:44;;;;;;;4.83;4.40;;;;;;;27.56;50.11;98913.84;5008995;28;20499;-79
2023/09/03 08:51:11;;;;;;;5.37;4.87;;;;;;;27.58;49.74;98923.59;5001269;28;20519;-82
2023/09/03 08:53:40;;;;;;;4.33;4.03;;;;;;;27.84;49.92;98926.97;5006110;28;20477;-80
2023/09/03 08:56:06;;;;;;;5.70;4.00;;;;;;;28.34;48.07;98930.34;4993069;28;21161;-80
2023/09/03 08:58:33;;;;;;;4.13;3.83;;;;;;;28.69;46.85;98931.88;5007905;28;20516;-80
2023/09/03 09:01:01;;;;;;;3.70;3.40;;;;;;;29.28;45.26;98934.09;5006779;28;20492;-80
2023/09/03 09:03:29;;;;;;;3.23;3.03;;;;;;;29.59;43.67;98947.59;5010163;28;20638;-80
2023/09/03 09:05:56;;;;;;;3.70;3.17;;;;;;;29.50;43.49;98932.72;5006699;28;21149;-81
2023/09/03 09:08:24;;;;;;;3.37;3.07;;;;;;;29.75;43.30;98940.63;5002392;28;20460;-80
2023/09/03 09:10:53;;;;;;;2.97;2.67;;;;;;;29.62;43.77;98936.66;4996964;28;20540;-81
2023/09/03 09:13:24;;;;;;;3.10;2.60;;;;;;;29.61;43.46;98946.16;5002897;28;20526;-79
2023/09/03 09:15:51;;;;;;;2.97;2.77;;;;;;;30.44;40.92;98933.22;5008157;28;20483;-80
2023/09/03 09:18:18;;;;;;;3.40;3.20;;;;;;;30.08;42.03;98939.50;5001340;28;20461;-81
2023/09/03 09:20:45;;;;;;;3.00;2.70;;;;;;;29.95;42.10;98945.84;4992868;28;20493;-80
2023/09/03 09:23:12;;;;;;;2.73;2.50;;;;;;;29.04;43.72;98947.31;4993495;28;20492;-80
2023/09/03 09:25:39;;;;;;;2.50;2.30;;;;;;;29.26;43.51;98943.91;5008171;28;20487;-81
2023/09/03 09:28:14;;;;;;;3.07;2.60;;;;;;;29.13;43.62;98950.25;5002670;28;21019;-81
2023/09/03 09:30:56;;;;;;;2.20;2.10;;;;;;;29.71;42.23;98947.97;5006928;28;20483;-80
2023/09/03 09:33:24;;;;;;;2.53;2.33;;;;;;;30.14;40.83;98943.03;5004120;28;20495;-80
2023/09/03 09:35:51;;;;;;;2.30;2.20;;;;;;;30.29;40.66;98953.91;5003261;28;20471;-77
2023/09/03 09:38:18;;;;;;;3.17;2.97;;;;;;;30.17;41.48;98955.56;5008847;28;21394;-77
2023/09/03 09:40:45;;;;;;;2.50;2.30;;;;;;;30.71;39.32;98958.41;5001787;28;20485;-79
2023/09/03 09:43:14;;;;;;;2.40;2.30;;;;;;;30.51;40.13;98952.38;5005982;28;20996;-79
2023/09/03 09:45:48;;;;;;;2.50;2.30;;;;;;;31.19;39.01;98971.91;5006943;28;20457;-79
2023/09/03 09:48:15;;;;;;;2.10;2.00;;;;;;;31.02;38.38;98952.97;5009341;28;20820;-78
2023/09/03 09:50:44;;;;;;;2.60;2.20;;;;;;;31.55;37.50;98955.09;5001909;28;20460;-80
2023/09/03 09:53:22;;;;;;;1.90;1.80;;;;;;;31.56;37.07;98950.31;5003370;28;20472;-80
2023/09/03 09:55:58;;;;;;;2.03;1.93;;;;;;;31.48;37.35;98945.50;5004188;28;20468;-79
2023/09/03 09:58:34;;;;;;;2.03;1.70;;;;;;;31.18;37.53;98947.91;5003948;28;20465;-80
2023/09/03 10:01:01;;;;;;;2.10;2.00;;;;;;;31.16;38.31;98949.34;5008259;28;20484;-78
2023/09/03 10:03:41;;;;;;;1.93;1.67;;;;;;;31.47;38.38;98946.66;5009177;28;20477;-82
2023/09/03 10:06:08;;;;;;;2.10;2.00;;;;;;;31.47;37.71;98952.25;5006601;28;20463;-79
2023/09/03 10:08:35;;;;;;;2.03;1.83;;;;;;;31.65;38.21;98949.25;5006468;28;20492;-82
2023/09/03 10:11:03;;;;;;;2.70;1.93;;;;;;;31.39;38.01;98951.84;5008520;28;20480;-81
2023/09/03 10:13:32;;;;;;;1.87;1.77;;;;;;;31.38;38.65;98949.38;5008139;28;20488;-80
2023/09/03 10:16:02;;;;;;;1.73;1.63;;;;;;;31.57;36.29;98946.38;5008204;28;20465;-80
2023/09/03 10:18:28;;;;;;;1.50;1.40;;;;;;;30.85;36.90;98936.03;5006849;28;20497;-80
2023/09/03 10:20:56;;;;;;;1.80;1.47;;;;;;;30.55;38.57;98937.44;5006317;28;20494;-80
2023/09/03 10:23:24;;;;;;;1.70;1.57;;;;;;;30.74;38.24;98941.00;5003824;28;20480;-77
2023/09/03 10:25:52;;;;;;;5.20;4.50;;;;;;;31.00;38.75;98938.47;5008020;28;20445;-77
2023/09/03 10:28:22;;;;;;;6.10;4.63;;;;;;;31.04;38.56;98935.88;5007974;28;20457;-78
2023/09/03 10:30:52;;;;;;;23.53;13.40;;;;;;;30.80;38.27;98938.94;5010495;28;20472;-77
2023/09/03 10:33:19;;;;;;;3.73;2.57;;;;;;;30.90;38.04;98921.91;5007397;28;20495;-80
2023/09/03 10:36:11;;;;;;;9.67;6.53;;;;;;;31.57;35.13;98924.81;5005864;28;20460;-84
2023/09/03 10:38:38;;;;;;;2.57;1.50;;;;;;;31.21;35.16;98924.84;5004852;28;20468;-80
2023/09/03 10:41:16;;;;;;;1.40;1.30;;;;;;;30.70;36.89;98922.38;5009105;28;20488;-85
2023/09/03 10:43:43;;;;;;;2.50;1.60;;;;;;;30.29;39.56;98927.94;5007758;28;20473;-82
2023/09/03 10:46:11;;;;;;;1.53;1.43;;;;;;;30.08;39.32;98939.50;5009626;28;20969;-82
2023/09/03 10:48:38;;;;;;;2.30;2.10;;;;;;;30.38;38.18;98924.09;5008562;28;20460;-80
2023/09/03 10:51:05;;;;;;;2.20;1.80;;;;;;;30.80;38.23;98924.13;5005908;28;20469;-78
2023/09/03 10:53:36;;;;;;;3.23;2.67;;;;;;;31.29;38.04;98924.09;5006955;28;20516;-78
2023/09/03 10:56:10;;;;;;;2.23;2.03;;;;;;;32.01;35.14;98923.16;5007621;28;20460;-83
2023/09/03 10:58:53;;;;;;;2.13;1.80;;;;;;;32.27;35.98;98926.09;5003840;28;20463;-86
2023/09/03 11:01:22;;;;;;;1.67;1.57;;;;;;;31.75;36.25;98925.81;5007790;28;20511;-81
2023/09/03 11:03:50;;;;;;;1.63;1.53;;;;;;;31.80;35.80;98928.47;5003979;28;20453;-80
2023/09/03 11:06:19;;;;;;;1.60;1.50;;;;;;;31.98;36.00;98930.22;5007116;28;20497;-81
2023/09/03 11:08:46;;;;;;;1.60;1.50;;;;;;;31.84;35.37;98934.28;5002065;28;20523;-80
2023/09/03 11:11:20;;;;;;;2.03;1.93;;;;;;;31.19;36.67;98934.72;5000552;28;20457;-79
2023/09/03 11:13:51;;;;;;;1.90;1.80;;;;;;;30.72;38.59;98926.50;5006916;28;20468;-80
2023/09/03 11:16:18;;;;;;;1.73;1.63;;;;;;;30.45;39.73;98926.50;5004993;28;20544;-80
2023/09/03 11:18:50;;;;;;;2.43;2.23;;;;;;;31.55;37.93;98920.69;5006151;28;20503;-80
2023/09/03 11:21:17;;;;;;;1.90;1.80;;;;;;;32.04;36.15;98926.13;5007005;28;20572;-80
2023/09/03 11:24:00;;;;;;;2.40;2.00;;;;;;;31.80;37.36;98919.25;5005028;28;20555;-80
2023/09/03 11:26:27;;;;;;;1.80;1.70;;;;;;;31.20;38.09;98923.19;5001860;28;20483;-80
2023/09/03 11:28:54;;;;;;;1.73;1.63;;;;;;;31.27;37.50;98923.59;5005363;28;20817;-80
2023/09/03 11:31:21;;;;;;;1.80;1.70;;;;;;;31.37;37.81;98922.53;5004235;28;20457;-80
2023/09/03 11:33:48;;;;;;;1.87;1.67;;;;;;;31.59;36.29;98933.72;5007272;28;20457;-81
2023/09/03 11:36:18;;;;;;;2.73;1.60;;;;;;;30.88;37.59;98929.78;5009072;28;20540;-80
2023/09/03 11:38:45;;;;;;;2.40;2.20;;;;;;;30.84;38.42;98933.53;5006604;28;20453;-80